createdAt,value
2022-07-30T00:00:54.892Z,18.20
2022-07-30T00:01:58.921Z,18.10
2022-07-30T00:03:02.454Z,18.10
2022-07-30T00:04:07.569Z,18.10
2022-07-30T00:05:11.693Z,18.10
2022-07-30T00:06:13.981Z,18.10
2022-07-30T00:07:17.597Z,18.10
2022-07-30T00:08:19.901Z,18.00
2022-07-30T00:09:23.190Z,18.00
2022-07-30T00:10:25.812Z,18.00
2022-07-30T00:11:29.250Z,18.00
2022-07-30T00:12:31.856Z,18.00
2022-07-30T00:13:35.357Z,18.00
2022-07-30T00:14:39.927Z,17.90
2022-07-30T00:15:43.800Z,17.90
2022-07-30T00:16:46.342Z,17.90
2022-07-30T00:17:51.677Z,17.90
2022-07-30T00:18:57.103Z,17.90
2022-07-30T00:20:01.540Z,17.90
2022-07-30T00:21:05.371Z,17.80
2022-07-30T00:22:09.523Z,17.80
2022-07-30T00:23:12.199Z,17.80
2022-07-30T00:24:15.562Z,17.80
2022-07-30T00:25:20.208Z,17.80
2022-07-30T00:26:25.925Z,17.80
2022-07-30T00:27:30.738Z,17.80
2022-07-30T00:28:37.128Z,17.70
2022-07-30T00:29:39.416Z,17.70
2022-07-30T00:31:58.033Z,17.70
2022-07-30T00:33:03.235Z,17.70
2022-07-30T00:34:05.582Z,17.70
2022-07-30T00:35:10.250Z,17.70
2022-07-30T00:36:12.731Z,17.70
2022-07-30T00:37:17.163Z,17.60
2022-07-30T00:38:22.851Z,17.60
2022-07-30T00:39:25.211Z,17.60
2022-07-30T00:40:28.755Z,17.60
2022-07-30T00:41:31.275Z,17.50
2022-07-30T00:42:45.594Z,17.50
2022-07-30T00:43:48.125Z,17.50
2022-07-30T00:44:51.561Z,17.40
2022-07-30T00:45:53.991Z,17.40
2022-07-30T00:46:58.434Z,17.40
2022-07-30T00:48:02.682Z,17.40
2022-07-30T00:49:08.054Z,17.40
2022-07-30T00:50:15.810Z,17.30
2022-07-30T00:51:20.314Z,17.30
2022-07-30T00:52:26.800Z,17.30
2022-07-30T00:53:29.218Z,17.30
2022-07-30T00:54:33.110Z,17.30
2022-07-30T00:55:38.071Z,17.20
2022-07-30T00:56:41.433Z,17.20
2022-07-30T00:57:44.038Z,17.20
2022-07-30T00:58:47.347Z,17.20
2022-07-30T00:59:49.645Z,17.20
2022-07-30T01:01:55.880Z,17.20
2022-07-30T01:02:59.324Z,17.20
2022-07-30T01:04:03.086Z,17.20
2022-07-30T01:05:08.055Z,17.20
2022-07-30T01:06:14.171Z,17.10
2022-07-30T01:07:20.167Z,17.10
2022-07-30T01:08:23.628Z,17.10
2022-07-30T01:09:27.359Z,17.10
2022-07-30T01:10:30.690Z,17.10
2022-07-30T01:11:37.336Z,17.10
2022-07-30T01:12:45.029Z,17.10
2022-07-30T01:13:47.592Z,17.00
2022-07-30T01:14:51.479Z,17.00
2022-07-30T01:15:54.179Z,17.00
2022-07-30T01:17:00.588Z,17.00
2022-07-30T01:18:07.653Z,17.00
2022-07-30T01:19:49.755Z,17.00
2022-07-30T01:21:05.709Z,17.00
2022-07-30T01:22:17.344Z,17.00
2022-07-30T01:23:36.012Z,16.90
2022-07-30T01:24:43.899Z,16.90
2022-07-30T01:25:59.571Z,16.90
2022-07-30T01:27:03.040Z,16.90
2022-07-30T01:28:14.976Z,16.90
2022-07-30T01:29:22.884Z,16.90
2022-07-30T01:30:30.988Z,16.80
2022-07-30T01:31:37.661Z,16.80
2022-07-30T01:32:45.121Z,16.80
2022-07-30T01:33:51.026Z,16.80
2022-07-30T01:35:03.277Z,16.80
2022-07-30T01:36:08.415Z,16.80
2022-07-30T01:37:12.889Z,16.70
2022-07-30T01:38:17.243Z,16.70
2022-07-30T01:39:21.484Z,16.70
2022-07-30T01:40:26.169Z,16.70
2022-07-30T01:41:34.017Z,16.70
2022-07-30T01:42:39.537Z,16.70
2022-07-30T01:43:46.862Z,16.60
2022-07-30T01:44:50.371Z,16.60
2022-07-30T01:47:02.060Z,16.60
2022-07-30T01:48:12.238Z,16.60
2022-07-30T01:49:17.707Z,16.60
2022-07-30T01:50:22.722Z,16.60
2022-07-30T01:51:37.297Z,16.50
2022-07-30T01:52:44.320Z,16.50
2022-07-30T01:53:54.373Z,16.50
2022-07-30T01:55:00.165Z,16.50
2022-07-30T01:56:04.831Z,16.50
2022-07-30T01:57:09.947Z,16.50
2022-07-30T01:58:14.946Z,16.50
2022-07-30T01:59:23.049Z,16.50
2022-07-30T02:00:30.844Z,16.50
2022-07-30T02:01:33.399Z,16.50
2022-07-30T02:02:38.506Z,16.50
2022-07-30T02:03:41.073Z,16.40
2022-07-30T02:04:46.974Z,16.40
2022-07-30T02:05:56.268Z,16.40
2022-07-30T02:07:05.905Z,16.40
2022-07-30T02:08:17.968Z,16.40
2022-07-30T02:09:31.238Z,16.40
2022-07-30T02:10:42.425Z,16.40
2022-07-30T02:12:10.976Z,16.40
2022-07-30T02:13:22.463Z,16.30
2022-07-30T02:14:34.134Z,16.40
2022-07-30T02:15:46.796Z,16.30
2022-07-30T02:16:56.206Z,16.30
2022-07-30T02:18:05.044Z,16.30
2022-07-30T02:19:13.953Z,16.30
2022-07-30T02:20:18.910Z,16.30
2022-07-30T02:21:36.430Z,16.30
2022-07-30T02:22:46.234Z,16.30
2022-07-30T02:23:50.255Z,16.30
2022-07-30T02:24:57.875Z,16.20
2022-07-30T02:26:02.002Z,16.20
2022-07-30T02:27:11.415Z,16.20
2022-07-30T02:28:19.167Z,16.20
2022-07-30T02:29:26.291Z,16.20
2022-07-30T02:30:32.729Z,16.20
2022-07-30T02:31:39.522Z,16.20
2022-07-30T02:32:44.131Z,16.20
2022-07-30T02:33:51.594Z,16.10
2022-07-30T02:34:59.948Z,16.10
2022-07-30T02:36:05.077Z,16.10
2022-07-30T02:37:15.583Z,16.10
2022-07-30T02:38:20.687Z,16.10
2022-07-30T02:39:23.857Z,16.10
2022-07-30T02:40:30.683Z,16.10
2022-07-30T02:41:38.623Z,16.10
2022-07-30T02:42:44.714Z,16.00
2022-07-30T02:43:51.398Z,16.10
2022-07-30T02:44:58.864Z,16.00
2022-07-30T02:46:03.028Z,16.00
2022-07-30T02:47:24.924Z,16.00
2022-07-30T02:48:35.044Z,16.00
2022-07-30T02:49:43.094Z,16.00
2022-07-30T02:50:47.925Z,16.00
2022-07-30T02:51:55.752Z,16.00
2022-07-30T02:53:00.657Z,16.00
2022-07-30T02:54:05.275Z,16.00
2022-07-30T02:55:11.089Z,15.90
2022-07-30T02:56:16.884Z,15.90
2022-07-30T02:57:21.344Z,15.90
2022-07-30T02:58:28.374Z,15.90
2022-07-30T02:59:33.619Z,15.90
2022-07-30T03:00:40.878Z,15.90
2022-07-30T03:01:46.835Z,15.80
2022-07-30T03:02:52.790Z,15.80
2022-07-30T03:04:01.051Z,15.80
2022-07-30T03:05:07.588Z,15.80
2022-07-30T03:06:13.564Z,15.80
2022-07-30T03:07:18.131Z,15.80
2022-07-30T03:08:21.106Z,15.70
2022-07-30T03:09:25.094Z,15.70
2022-07-30T03:10:29.074Z,15.70
2022-07-30T03:11:35.415Z,15.70
2022-07-30T03:12:44.414Z,15.70
2022-07-30T03:13:49.824Z,15.70
2022-07-30T03:14:53.942Z,15.70
2022-07-30T03:16:00.047Z,15.60
2022-07-30T03:17:06.152Z,15.60
2022-07-30T03:18:14.887Z,15.60
2022-07-30T03:19:20.591Z,15.60
2022-07-30T03:20:31.769Z,15.60
2022-07-30T03:21:38.031Z,15.60
2022-07-30T03:22:47.703Z,15.60
2022-07-30T03:23:51.068Z,15.60
2022-07-30T03:24:56.574Z,15.60
2022-07-30T03:26:02.954Z,15.60
2022-07-30T03:27:08.071Z,15.60
2022-07-30T03:28:12.113Z,15.50
2022-07-30T03:29:21.830Z,15.50
2022-07-30T03:30:27.178Z,15.50
2022-07-30T03:31:36.513Z,15.50
2022-07-30T03:32:43.385Z,15.50
2022-07-30T03:33:47.880Z,15.50
2022-07-30T03:34:51.650Z,15.50
2022-07-30T03:35:56.428Z,15.50
2022-07-30T03:37:00.836Z,15.50
2022-07-30T03:38:05.807Z,15.50
2022-07-30T03:39:12.167Z,15.40
2022-07-30T03:40:15.436Z,15.40
2022-07-30T03:41:22.571Z,15.40
2022-07-30T03:42:25.648Z,15.40
2022-07-30T03:43:33.140Z,15.40
2022-07-30T03:44:37.281Z,15.40
2022-07-30T03:45:46.760Z,15.30
2022-07-30T03:46:54.447Z,15.30
2022-07-30T03:48:02.474Z,15.30
2022-07-30T03:49:09.152Z,15.30
2022-07-30T03:50:16.810Z,15.30
2022-07-30T03:51:19.738Z,15.30
2022-07-30T03:52:23.670Z,15.30
2022-07-30T03:53:29.994Z,15.30
2022-07-30T03:54:52.456Z,15.30
2022-07-30T03:56:15.166Z,15.30
2022-07-30T03:57:41.145Z,15.30
2022-07-30T03:58:44.161Z,15.30
2022-07-30T03:59:47.925Z,15.30
2022-07-30T04:00:51.811Z,15.30
2022-07-30T04:01:55.259Z,15.30
2022-07-30T04:03:14.939Z,15.30
2022-07-30T04:04:27.976Z,15.30
2022-07-30T04:05:37.725Z,15.40
2022-07-30T04:06:44.865Z,15.40
2022-07-30T04:07:50.264Z,15.40
2022-07-30T04:08:56.483Z,15.40
2022-07-30T04:10:01.292Z,15.40
2022-07-30T04:11:16.935Z,15.40
2022-07-30T04:12:24.682Z,15.50
2022-07-30T04:13:29.993Z,15.50
2022-07-30T04:14:41.894Z,15.50
2022-07-30T04:16:40.583Z,15.50
2022-07-30T04:17:21.318Z,15.50
2022-07-30T04:18:26.811Z,15.50
2022-07-30T04:19:34.839Z,15.50
2022-07-30T04:20:42.334Z,15.50
2022-07-30T04:21:50.216Z,15.50
2022-07-30T04:22:53.732Z,15.60
2022-07-30T04:24:04.715Z,15.60
2022-07-30T04:25:11.405Z,15.60
2022-07-30T04:26:26.603Z,15.60
2022-07-30T04:27:32.058Z,15.60
2022-07-30T04:28:36.419Z,15.60
2022-07-30T04:29:40.002Z,15.60
2022-07-30T04:30:42.525Z,15.60
2022-07-30T04:31:48.126Z,15.70
2022-07-30T04:33:12.732Z,15.70
2022-07-30T04:34:57.613Z,15.70
2022-07-30T04:36:22.881Z,15.80
2022-07-30T04:37:28.837Z,15.80
2022-07-30T04:38:31.376Z,15.80
2022-07-30T04:39:34.712Z,15.90
2022-07-30T04:40:39.541Z,15.90
2022-07-30T04:41:49.162Z,16.00
2022-07-30T04:43:19.199Z,16.00
2022-07-30T04:44:21.540Z,16.20
2022-07-30T04:45:44.994Z,16.20
2022-07-30T04:46:48.617Z,16.40
2022-07-30T04:47:53.822Z,16.50
2022-07-30T04:49:20.082Z,16.50
2022-07-30T04:50:25.813Z,16.60
2022-07-30T04:51:35.211Z,16.70
2022-07-30T04:52:41.750Z,16.80
2022-07-30T04:53:47.018Z,16.80
2022-07-30T04:54:56.633Z,16.80
2022-07-30T04:56:02.483Z,16.90
2022-07-30T04:57:10.097Z,16.90
2022-07-30T04:58:14.979Z,16.90
2022-07-30T04:59:24.718Z,16.90
2022-07-30T05:00:32.539Z,17.00
2022-07-30T05:01:40.683Z,17.00
2022-07-30T05:02:45.072Z,17.00
2022-07-30T05:03:48.736Z,17.00
2022-07-30T05:04:54.565Z,17.00
2022-07-30T05:05:59.817Z,17.10
2022-07-30T05:07:07.296Z,17.10
2022-07-30T05:08:14.848Z,17.10
2022-07-30T05:09:18.028Z,17.20
2022-07-30T05:10:21.500Z,17.20
2022-07-30T05:11:23.873Z,17.30
2022-07-30T05:12:34.844Z,17.40
2022-07-30T05:13:38.235Z,17.40
2022-07-30T05:14:48.083Z,17.50
2022-07-30T05:15:52.397Z,17.70
2022-07-30T05:16:57.106Z,17.80
2022-07-30T05:18:00.506Z,17.90
2022-07-30T05:19:07.913Z,18.00
2022-07-30T05:20:13.167Z,18.00
2022-07-30T05:21:34.720Z,18.10
2022-07-30T05:22:39.578Z,18.30
2022-07-30T05:23:50.240Z,18.40
2022-07-30T05:25:17.401Z,18.50
2022-07-30T05:26:22.373Z,18.70
2022-07-30T05:27:31.020Z,18.80
2022-07-30T05:28:34.303Z,19.00
2022-07-30T05:29:40.885Z,19.20
2022-07-30T05:30:49.549Z,19.40
2022-07-30T05:31:54.015Z,19.60
2022-07-30T05:32:58.137Z,19.70
2022-07-30T05:34:04.059Z,19.90
2022-07-30T05:35:19.055Z,20.10
2022-07-30T05:36:21.968Z,20.30
2022-07-30T05:37:25.266Z,20.50
2022-07-30T05:38:28.777Z,20.60
2022-07-30T05:39:58.930Z,20.80
2022-07-30T05:41:32.629Z,21.00
2022-07-30T05:42:39.365Z,21.30
2022-07-30T05:43:44.801Z,21.40
2022-07-30T05:44:49.460Z,21.60
2022-07-30T05:45:53.044Z,21.80
2022-07-30T05:46:55.502Z,22.00
2022-07-30T05:47:59.649Z,22.10
2022-07-30T05:49:02.034Z,22.30
2022-07-30T05:50:09.338Z,22.50
2022-07-30T05:51:13.094Z,22.60
2022-07-30T05:52:16.800Z,22.80
2022-07-30T05:53:19.514Z,22.90
2022-07-30T05:54:43.060Z,23.00
2022-07-30T05:55:54.400Z,23.10
2022-07-30T05:57:17.985Z,23.10
2022-07-30T05:59:24.372Z,23.30
2022-07-30T06:00:39.542Z,23.40
2022-07-30T06:01:45.273Z,23.50
2022-07-30T06:02:53.753Z,23.70
2022-07-30T06:04:02.809Z,23.80
2022-07-30T06:05:22.365Z,24.00
2022-07-30T06:06:26.346Z,24.30
2022-07-30T06:07:29.895Z,24.50
2022-07-30T06:08:33.691Z,24.70
2022-07-30T06:09:37.460Z,24.90
2022-07-30T06:10:43.312Z,25.10
2022-07-30T06:11:47.373Z,25.30
2022-07-30T06:12:50.887Z,25.40
2022-07-30T06:13:54.969Z,25.60
2022-07-30T06:14:58.748Z,25.80
2022-07-30T06:16:20.080Z,26.00
2022-07-30T06:17:24.724Z,26.20
2022-07-30T06:18:41.702Z,26.40
2022-07-30T06:19:53.361Z,26.70
2022-07-30T06:20:59.518Z,26.90
2022-07-30T06:22:26.012Z,27.10
2022-07-30T06:23:30.480Z,27.30
2022-07-30T06:24:48.681Z,27.50
2022-07-30T06:25:55.581Z,27.70
2022-07-30T06:27:00.290Z,27.90
2022-07-30T06:29:30.569Z,28.30
2022-07-30T06:30:33.156Z,28.40
2022-07-30T06:31:38.288Z,28.60
2022-07-30T06:32:48.821Z,28.70
2022-07-30T06:35:03.978Z,29.00
2022-07-30T06:36:09.071Z,29.10
2022-07-30T06:38:04.987Z,29.30
2022-07-30T06:38:52.697Z,29.50
2022-07-30T06:40:04.085Z,29.70
2022-07-30T06:41:11.070Z,29.90
2022-07-30T06:42:33.981Z,30.10
2022-07-30T06:44:07.057Z,30.40
2022-07-30T06:45:30.680Z,30.70
2022-07-30T06:47:06.797Z,30.90
2022-07-30T06:48:14.392Z,31.10
2022-07-30T06:49:17.531Z,31.30
2022-07-30T06:50:21.646Z,31.40
2022-07-30T06:51:24.025Z,31.50
2022-07-30T06:52:27.420Z,31.70
2022-07-30T06:53:31.786Z,31.80
2022-07-30T06:54:50.480Z,32.00
2022-07-30T06:56:18.157Z,32.20
2022-07-30T06:57:29.306Z,32.40
2022-07-30T06:58:37.017Z,32.60
2022-07-30T06:59:58.811Z,32.80
2022-07-30T07:01:11.244Z,33.00
2022-07-30T07:02:15.439Z,33.20
2022-07-30T07:03:39.697Z,33.40
2022-07-30T07:04:44.565Z,33.70
2022-07-30T07:05:47.191Z,33.90
2022-07-30T07:06:50.494Z,34.00
2022-07-30T07:08:02.175Z,34.20
2022-07-30T07:09:11.945Z,34.40
2022-07-30T07:10:23.727Z,34.60
2022-07-30T07:11:37.717Z,34.80
2022-07-30T07:12:45.513Z,35.00
2022-07-30T07:13:51.664Z,35.20
2022-07-30T07:15:02.679Z,35.40
2022-07-30T07:16:06.725Z,35.50
2022-07-30T07:17:11.581Z,35.60
2022-07-30T07:18:33.370Z,35.80
2022-07-30T07:20:00.045Z,36.00
2022-07-30T07:21:03.810Z,36.10
2022-07-30T07:22:06.201Z,36.10
2022-07-30T07:23:12.090Z,36.20
2022-07-30T07:24:16.715Z,36.20
2022-07-30T07:25:33.013Z,36.10
2022-07-30T07:26:35.905Z,36.10
2022-07-30T07:27:39.820Z,36.20
2022-07-30T07:28:43.207Z,36.20
2022-07-30T07:30:05.525Z,36.30
2022-07-30T07:32:07.290Z,36.30
2022-07-30T07:32:37.420Z,36.40
2022-07-30T07:33:40.561Z,36.30
2022-07-30T07:34:46.923Z,36.30
2022-07-30T07:35:51.832Z,36.30
2022-07-30T07:37:01.694Z,36.20
2022-07-30T07:38:07.041Z,36.20
2022-07-30T07:39:13.099Z,36.20
2022-07-30T07:40:20.384Z,36.10
2022-07-30T07:41:23.932Z,36.10
2022-07-30T07:42:29.609Z,36.00
2022-07-30T07:43:32.393Z,36.00
2022-07-30T07:44:37.153Z,36.00
2022-07-30T07:45:41.479Z,36.10
2022-07-30T07:46:44.169Z,36.30
2022-07-30T07:47:52.100Z,36.50
2022-07-30T07:49:17.083Z,36.70
2022-07-30T07:50:25.505Z,37.00
2022-07-30T07:51:46.878Z,37.20
2022-07-30T07:52:52.974Z,37.40
2022-07-30T07:54:20.303Z,37.70
2022-07-30T07:55:26.316Z,38.00
2022-07-30T07:56:28.710Z,38.30
2022-07-30T07:57:33.333Z,38.50
2022-07-30T07:58:35.904Z,38.70
2022-07-30T07:59:46.167Z,38.90
2022-07-30T08:00:56.057Z,39.00
2022-07-30T08:02:09.095Z,39.10
2022-07-30T08:03:28.317Z,39.30
2022-07-30T08:04:31.865Z,39.60
2022-07-30T08:06:06.375Z,39.80
2022-07-30T08:07:36.894Z,40.00
2022-07-30T08:09:03.535Z,40.20
2022-07-30T08:10:30.057Z,40.40
2022-07-30T08:11:56.641Z,40.50
2022-07-30T08:13:49.106Z,40.50
2022-07-30T08:15:00.506Z,40.60
2022-07-30T08:16:12.696Z,40.80
2022-07-30T08:17:35.114Z,40.90
2022-07-30T08:18:46.640Z,41.00
2022-07-30T08:20:03.296Z,41.00
2022-07-30T08:21:07.616Z,41.10
2022-07-30T08:22:12.664Z,41.30
2022-07-30T08:23:16.464Z,41.40
2022-07-30T08:24:18.902Z,41.50
2022-07-30T08:25:24.274Z,41.60
2022-07-30T08:26:29.840Z,41.80
2022-07-30T08:27:32.394Z,41.90
2022-07-30T08:28:37.364Z,42.10
2022-07-30T08:29:43.445Z,42.40
2022-07-30T08:30:49.887Z,42.60
2022-07-30T08:31:55.597Z,42.80
2022-07-30T08:33:01.272Z,43.10
2022-07-30T08:34:03.785Z,43.30
2022-07-30T08:35:09.081Z,43.50
2022-07-30T08:36:12.728Z,43.60
2022-07-30T08:37:15.204Z,43.80
2022-07-30T08:38:18.503Z,43.90
2022-07-30T08:39:21.250Z,44.20
2022-07-30T08:40:27.829Z,44.40
2022-07-30T08:41:42.630Z,44.60
2022-07-30T08:42:48.727Z,44.80
2022-07-30T08:43:52.431Z,45.00
2022-07-30T08:44:58.638Z,45.20
2022-07-30T08:46:02.372Z,45.40
2022-07-30T08:47:19.347Z,45.70
2022-07-30T08:48:43.438Z,45.90
2022-07-30T08:49:49.048Z,46.00
2022-07-30T08:50:54.794Z,46.10
2022-07-30T08:52:12.611Z,46.20
2022-07-30T08:53:23.519Z,46.30
2022-07-30T08:54:30.195Z,46.40
2022-07-30T08:55:32.986Z,46.50
2022-07-30T08:56:39.194Z,46.60
2022-07-30T08:57:44.216Z,46.80
2022-07-30T08:58:48.571Z,46.90
2022-07-30T09:00:00.542Z,47.00
2022-07-30T09:02:12.461Z,47.30
2022-07-30T09:03:29.736Z,47.40
2022-07-30T09:04:36.865Z,47.60
2022-07-30T09:05:40.350Z,47.70
2022-07-30T09:06:43.657Z,47.80
2022-07-30T09:07:46.213Z,47.90
2022-07-30T09:08:56.001Z,47.90
2022-07-30T09:09:58.824Z,48.00
2022-07-30T09:11:03.360Z,48.10
2022-07-30T09:12:34.911Z,48.10
2022-07-30T09:13:44.459Z,48.20
2022-07-30T09:15:05.906Z,48.20
2022-07-30T09:16:19.364Z,48.20
2022-07-30T09:17:21.842Z,48.10
2022-07-30T09:18:30.620Z,47.90
2022-07-30T09:19:33.387Z,47.70
2022-07-30T09:20:37.660Z,47.50
2022-07-30T09:21:54.810Z,47.30
2022-07-30T09:23:05.632Z,47.20
2022-07-30T09:24:43.825Z,47.10
2022-07-30T09:26:18.935Z,47.10
2022-07-30T09:27:47.775Z,47.00
2022-07-30T09:29:23.019Z,46.90
2022-07-30T09:30:48.469Z,46.70
2022-07-30T09:32:27.372Z,46.40
2022-07-30T09:34:24.007Z,46.20
2022-07-30T09:35:36.609Z,46.10
2022-07-30T09:36:46.103Z,46.20
2022-07-30T09:38:05.868Z,46.30
2022-07-30T09:39:33.779Z,46.40
2022-07-30T09:41:04.904Z,46.60
2022-07-30T09:42:28.777Z,46.80
2022-07-30T09:43:41.278Z,46.90
2022-07-30T09:44:50.027Z,47.00
2022-07-30T09:45:58.961Z,47.00
2022-07-30T09:47:05.046Z,47.00
2022-07-30T09:48:22.344Z,47.00
2022-07-30T09:49:30.068Z,47.00
2022-07-30T09:50:34.945Z,47.10
2022-07-30T09:51:55.805Z,47.10
2022-07-30T09:53:11.784Z,47.20
2022-07-30T09:54:16.822Z,47.30
2022-07-30T09:55:32.436Z,47.40
2022-07-30T09:56:35.772Z,47.40
2022-07-30T09:57:57.611Z,47.30
2022-07-30T09:59:03.439Z,47.20
2022-07-30T10:00:24.006Z,47.10
2022-07-30T10:01:55.073Z,47.10
2022-07-30T10:03:33.311Z,47.00
2022-07-30T10:05:14.499Z,46.90
2022-07-30T10:06:17.704Z,46.90
2022-07-30T10:07:25.643Z,47.00
2022-07-30T10:08:42.830Z,47.00
2022-07-30T10:09:53.339Z,47.20
2022-07-30T10:10:57.521Z,47.40
2022-07-30T10:12:11.289Z,47.50
2022-07-30T10:13:19.693Z,47.70
2022-07-30T10:14:31.380Z,47.80
2022-07-30T10:15:40.384Z,48.00
2022-07-30T10:16:47.769Z,48.10
2022-07-30T10:17:51.516Z,48.20
2022-07-30T10:19:23.308Z,48.20
2022-07-30T10:20:46.082Z,48.20
2022-07-30T10:22:25.123Z,48.10
2022-07-30T10:23:44.434Z,48.00
2022-07-30T10:25:23.024Z,47.90
2022-07-30T10:27:11.092Z,47.90
2022-07-30T10:28:24.635Z,47.90
2022-07-30T10:29:33.472Z,47.90
2022-07-30T10:30:40.685Z,48.00
2022-07-30T10:31:48.334Z,48.00
2022-07-30T10:32:52.964Z,48.10
2022-07-30T10:33:57.560Z,48.10
2022-07-30T10:35:01.156Z,48.00
2022-07-30T10:36:05.257Z,48.00
2022-07-30T10:37:08.148Z,48.00
2022-07-30T10:38:15.820Z,47.90
2022-07-30T10:39:26.310Z,47.80
2022-07-30T10:40:35.074Z,47.70
2022-07-30T10:41:57.709Z,47.50
2022-07-30T10:43:35.993Z,47.40
2022-07-30T10:45:01.587Z,47.20
2022-07-30T10:46:21.940Z,47.20
2022-07-30T10:47:34.409Z,47.20
2022-07-30T10:48:38.396Z,47.20
2022-07-30T10:49:43.136Z,47.20
2022-07-30T10:50:54.736Z,47.10
2022-07-30T10:52:00.050Z,47.10
2022-07-30T10:53:02.596Z,47.10
2022-07-30T10:54:06.277Z,47.10
2022-07-30T10:55:15.909Z,47.10
2022-07-30T10:56:25.483Z,47.10
2022-07-30T10:57:32.226Z,47.10
2022-07-30T10:59:00.218Z,47.20
2022-07-30T11:00:15.569Z,47.20
2022-07-30T11:01:22.419Z,47.20
2022-07-30T11:02:29.318Z,47.20
2022-07-30T11:03:41.592Z,47.20
2022-07-30T11:04:47.954Z,47.20
2022-07-30T11:06:24.553Z,47.20
2022-07-30T11:07:31.276Z,47.20
2022-07-30T11:08:42.833Z,47.20
2022-07-30T11:10:08.759Z,47.00
2022-07-30T11:12:01.215Z,46.80
2022-07-30T11:13:10.904Z,46.40
2022-07-30T11:14:13.318Z,46.10
2022-07-30T11:15:18.453Z,46.00
2022-07-30T11:17:05.759Z,45.90
2022-07-30T11:18:12.693Z,45.70
2022-07-30T11:19:53.222Z,45.50
2022-07-30T11:21:20.649Z,45.30
2022-07-30T11:22:31.674Z,45.10
2022-07-30T11:23:40.555Z,44.90
2022-07-30T11:24:45.917Z,44.80
2022-07-30T11:25:51.767Z,44.60
2022-07-30T11:26:58.143Z,44.40
2022-07-30T11:28:00.810Z,44.20
2022-07-30T11:29:05.725Z,44.10
2022-07-30T11:30:36.081Z,44.00
2022-07-30T11:31:56.813Z,43.80
2022-07-30T11:33:32.193Z,43.70
2022-07-30T11:34:38.197Z,43.50
2022-07-30T11:35:44.876Z,43.50
2022-07-30T11:37:19.111Z,43.30
2022-07-30T11:38:25.874Z,43.20
2022-07-30T11:40:12.889Z,43.10
2022-07-30T11:41:16.469Z,43.00
2022-07-30T11:42:26.368Z,43.00
2022-07-30T11:43:34.753Z,43.10
2022-07-30T11:44:38.848Z,43.10
2022-07-30T11:45:42.547Z,43.10
2022-07-30T11:46:50.154Z,43.10
2022-07-30T11:48:01.460Z,43.00
2022-07-30T11:49:08.458Z,42.80
2022-07-30T11:50:19.594Z,42.70
2022-07-30T11:51:23.311Z,42.50
2022-07-30T11:52:25.856Z,42.20
2022-07-30T11:53:29.360Z,42.00
2022-07-30T11:54:33.097Z,41.70
2022-07-30T11:55:40.739Z,41.40
2022-07-30T11:56:51.668Z,41.10
2022-07-30T11:57:56.178Z,40.70
2022-07-30T11:59:03.890Z,40.40
2022-07-30T12:00:08.723Z,40.10
2022-07-30T12:01:18.587Z,39.80
2022-07-30T12:02:27.675Z,39.60
2022-07-30T12:03:34.008Z,39.30
2022-07-30T12:04:43.970Z,39.00
2022-07-30T12:05:51.046Z,38.80
2022-07-30T12:06:55.819Z,38.60
2022-07-30T12:07:58.966Z,38.40
2022-07-30T12:09:02.853Z,38.20
2022-07-30T12:10:16.148Z,38.10
2022-07-30T12:11:20.850Z,38.00
2022-07-30T12:12:24.289Z,37.90
2022-07-30T12:13:45.532Z,37.80
2022-07-30T12:14:52.933Z,37.70
2022-07-30T12:15:55.369Z,37.60
2022-07-30T12:17:00.287Z,37.40
2022-07-30T12:18:25.967Z,37.30
2022-07-30T12:19:29.849Z,37.10
2022-07-30T12:20:57.589Z,36.90
2022-07-30T12:22:01.709Z,36.80
2022-07-30T12:23:10.774Z,36.80
2022-07-30T12:24:15.588Z,36.80
2022-07-30T12:25:19.601Z,36.80
2022-07-30T12:26:27.914Z,36.80
2022-07-30T12:27:30.308Z,36.90
2022-07-30T12:28:35.444Z,36.90
2022-07-30T12:29:38.034Z,37.00
2022-07-30T12:30:42.143Z,37.00
2022-07-30T12:31:46.199Z,37.00
2022-07-30T12:32:51.660Z,37.00
2022-07-30T12:33:58.973Z,36.90
2022-07-30T12:35:05.389Z,36.80
2022-07-30T12:36:10.327Z,36.70
2022-07-30T12:37:15.321Z,36.60
2022-07-30T12:38:19.857Z,36.60
2022-07-30T12:39:25.700Z,36.50
2022-07-30T12:40:28.240Z,36.40
2022-07-30T12:41:45.685Z,36.40
2022-07-30T12:42:52.335Z,36.30
2022-07-30T12:43:58.763Z,36.20
2022-07-30T12:45:04.223Z,36.20
2022-07-30T12:46:09.749Z,36.10
2022-07-30T12:47:22.086Z,36.10
2022-07-30T12:48:24.380Z,36.10
2022-07-30T12:49:36.714Z,36.10
2022-07-30T12:50:42.194Z,36.10
2022-07-30T12:51:59.816Z,36.20
2022-07-30T12:53:03.097Z,36.30
2022-07-30T12:54:18.638Z,36.40
2022-07-30T12:55:30.987Z,36.50
2022-07-30T12:56:34.826Z,36.50
2022-07-30T12:58:05.458Z,36.60
2022-07-30T12:59:22.517Z,36.60
2022-07-30T13:00:30.568Z,36.80
2022-07-30T13:01:43.902Z,36.90
2022-07-30T13:02:49.858Z,37.00
2022-07-30T13:04:05.821Z,37.10
2022-07-30T13:05:12.136Z,37.20
2022-07-30T13:06:21.085Z,37.40
2022-07-30T13:07:23.625Z,37.40
2022-07-30T13:08:54.977Z,37.50
2022-07-30T13:10:13.614Z,37.60
2022-07-30T13:11:17.501Z,37.60
2022-07-30T13:12:20.845Z,37.60
2022-07-30T13:13:23.631Z,37.70
2022-07-30T13:14:29.273Z,37.70
2022-07-30T13:15:32.620Z,37.80
2022-07-30T13:16:37.007Z,37.80
2022-07-30T13:17:41.403Z,37.90
2022-07-30T13:18:44.158Z,38.00
2022-07-30T13:19:47.470Z,38.00
2022-07-30T13:20:51.656Z,38.00
2022-07-30T13:21:55.116Z,38.00
2022-07-30T13:23:01.759Z,38.00
2022-07-30T13:24:07.460Z,37.90
2022-07-30T13:25:12.807Z,37.80
2022-07-30T13:26:16.449Z,37.80
2022-07-30T13:27:19.567Z,37.60
2022-07-30T13:28:25.514Z,37.50
2022-07-30T13:29:27.868Z,37.40
2022-07-30T13:30:31.107Z,37.20
2022-07-30T13:31:42.971Z,37.10
2022-07-30T13:32:48.185Z,37.00
2022-07-30T13:33:51.898Z,36.90
2022-07-30T13:34:56.651Z,36.80
2022-07-30T13:36:04.954Z,36.70
2022-07-30T13:37:08.437Z,36.70
2022-07-30T13:38:13.696Z,36.60
2022-07-30T13:39:17.042Z,36.60
2022-07-30T13:40:19.722Z,36.50
2022-07-30T13:41:23.127Z,36.50
2022-07-30T13:42:25.564Z,36.30
2022-07-30T13:43:32.043Z,36.20
2022-07-30T13:44:36.386Z,36.00
2022-07-30T13:45:41.045Z,35.80
2022-07-30T13:46:43.582Z,35.70
2022-07-30T13:47:47.898Z,35.50
2022-07-30T13:48:50.308Z,35.30
2022-07-30T13:49:54.065Z,35.20
2022-07-30T13:50:56.707Z,35.10
2022-07-30T13:52:01.507Z,35.00
2022-07-30T13:53:03.987Z,34.90
2022-07-30T13:54:07.713Z,34.80
2022-07-30T13:55:13.602Z,34.70
2022-07-30T13:56:17.017Z,34.60
2022-07-30T13:57:22.290Z,34.50
2022-07-30T13:58:25.594Z,34.50
2022-07-30T13:59:29.127Z,34.40
2022-07-30T14:00:32.678Z,34.40
2022-07-30T14:01:36.356Z,34.30
2022-07-30T14:02:39.209Z,34.30
2022-07-30T14:03:48.451Z,34.20
2022-07-30T14:04:53.700Z,34.10
2022-07-30T14:05:56.685Z,34.00
2022-07-30T14:07:15.503Z,33.90
2022-07-30T14:08:22.553Z,33.80
2022-07-30T14:09:28.050Z,33.60
2022-07-30T14:10:34.810Z,33.50
2022-07-30T14:11:37.636Z,33.50
2022-07-30T14:12:41.254Z,33.50
2022-07-30T14:13:47.561Z,33.40
2022-07-30T14:14:50.315Z,33.40
2022-07-30T14:15:54.412Z,33.40
2022-07-30T14:16:57.403Z,33.40
2022-07-30T14:18:01.776Z,33.40
2022-07-30T14:19:04.545Z,33.30
2022-07-30T14:20:08.903Z,33.30
2022-07-30T14:21:14.814Z,33.30
2022-07-30T14:22:19.717Z,33.30
2022-07-30T14:23:23.826Z,33.30
2022-07-30T14:24:26.533Z,33.30
2022-07-30T14:25:32.435Z,33.30
2022-07-30T14:26:36.456Z,33.30
2022-07-30T14:27:40.645Z,33.30
2022-07-30T14:28:43.112Z,33.30
2022-07-30T14:29:46.667Z,33.30
2022-07-30T14:30:49.399Z,33.30
2022-07-30T14:31:52.990Z,33.40
2022-07-30T14:33:01.607Z,33.50
2022-07-30T14:34:08.054Z,33.50
2022-07-30T14:35:11.112Z,33.60
2022-07-30T14:36:15.300Z,33.70
2022-07-30T14:37:19.162Z,33.70
2022-07-30T14:38:22.488Z,33.80
2022-07-30T14:39:28.567Z,33.90
2022-07-30T14:40:31.965Z,34.00
2022-07-30T14:41:35.286Z,34.00
2022-07-30T14:42:40.122Z,34.10
2022-07-30T14:43:42.558Z,34.20
2022-07-30T14:44:52.217Z,34.30
2022-07-30T14:45:57.099Z,34.30
2022-07-30T14:47:01.277Z,34.40
2022-07-30T14:48:04.265Z,34.40
2022-07-30T14:49:09.134Z,34.40
2022-07-30T14:50:14.698Z,34.40
2022-07-30T14:51:24.266Z,34.50
2022-07-30T14:52:30.771Z,34.50
2022-07-30T14:53:34.416Z,34.50
2022-07-30T14:54:36.799Z,34.60
2022-07-30T14:55:40.496Z,34.60
2022-07-30T14:56:43.307Z,34.60
2022-07-30T14:57:47.344Z,34.60